Time;durP1;ratioP1;P1;durP2;ratioP2;P2;SDS_P1;SDS_P2;PMS_P1;PMS_P2;Temp;Humidity;BMP_temperature;BMP_pressure;BME280_temperature;BME280_humidity;BME280_pressure;Samples;Min_cycle;Max_cycle;Signal;HPM_P1;HPM_P2
2023/08/20 00:01:43;;;;;;;15.60;8.50;;;;;;;17.47;nan;102018.75;5024437;28;20025;-79
2023/08/20 00:04:09;;;;;;;16.85;9.40;;;;;;;17.41;nan;102021.59;5023313;28;20022;-78
2023/08/20 00:06:34;;;;;;;18.60;9.25;;;;;;;17.29;nan;102008.81;5018018;28;20045;-79
2023/08/20 00:09:00;;;;;;;15.05;8.20;;;;;;;17.32;nan;102017.50;5018147;28;20393;-79
2023/08/20 00:11:25;;;;;;;14.70;7.15;;;;;;;17.31;nan;102023.69;5029094;28;20029;-78
2023/08/20 00:13:50;;;;;;;14.35;7.07;;;;;;;17.33;nan;102031.56;5022928;28;20025;-79
2023/08/20 00:16:16;;;;;;;16.38;6.70;;;;;;;17.18;nan;102024.13;5026330;28;20049;-78
2023/08/20 00:18:42;;;;;;;10.95;6.15;;;;;;;17.17;nan;102015.38;5025535;28;20026;-78
2023/08/20 00:21:08;;;;;;;12.18;6.35;;;;;;;17.13;nan;102008.47;5022866;28;20095;-78
2023/08/20 00:23:34;;;;;;;14.30;7.03;;;;;;;17.16;nan;102018.03;5024462;28;20469;-78
2023/08/20 00:26:00;;;;;;;13.63;8.38;;;;;;;17.13;nan;102023.41;5024821;28;20036;-79
2023/08/20 00:28:25;;;;;;;18.63;10.70;;;;;;;16.99;nan;102016.81;5023065;28;20022;-78
2023/08/20 00:30:51;;;;;;;25.98;13.75;;;;;;;16.80;nan;101995.44;5023122;28;20029;-78
2023/08/20 00:33:17;;;;;;;21.17;11.50;;;;;;;16.99;nan;102026.50;5020190;28;20044;-78
2023/08/20 00:35:42;;;;;;;17.35;9.40;;;;;;;17.00;nan;102029.09;5020816;28;20040;-78
2023/08/20 00:38:07;;;;;;;10.77;6.07;;;;;;;17.02;nan;102035.16;5020259;28;20029;-78
2023/08/20 00:40:33;;;;;;;15.95;7.38;;;;;;;16.96;nan;102026.59;5026089;28;20029;-78
2023/08/20 00:42:58;;;;;;;16.15;7.90;;;;;;;17.04;nan;102049.16;5025075;28;20499;-78
2023/08/20 00:45:24;;;;;;;12.20;6.72;;;;;;;16.93;nan;102040.69;5020059;28;20529;-78
2023/08/20 00:47:51;;;;;;;13.55;5.50;;;;;;;16.89;nan;102049.63;5021853;28;20049;-78
2023/08/20 00:50:16;;;;;;;7.82;4.00;;;;;;;16.86;nan;102052.34;5018935;28;20030;-78
2023/08/20 00:52:42;;;;;;;7.30;3.83;;;;;;;17.08;nan;102057.81;5015481;28;20527;-79
2023/08/20 00:55:10;;;;;;;6.25;3.75;;;;;;;17.09;nan;102064.81;5018549;28;20501;-78
2023/08/20 00:57:39;;;;;;;6.63;3.90;;;;;;;17.11;nan;102059.50;5017083;28;20034;-79
2023/08/20 01:00:14;;;;;;;9.77;4.57;;;;;;;17.07;nan;102062.22;5018988;28;20095;-78
2023/08/20 01:02:40;;;;;;;7.38;3.58;;;;;;;16.99;nan;102079.19;5013328;28;20051;-78
2023/08/20 01:05:11;;;;;;;8.93;4.18;;;;;;;16.93;nan;102068.81;5025545;28;20030;-78
2023/08/20 01:07:45;;;;;;;8.63;4.35;;;;;;;17.01;nan;102098.44;5020403;28;20026;-78
2023/08/20 01:10:24;;;;;;;7.47;3.80;;;;;;;17.08;nan;102085.03;5025999;28;20041;-79
2023/08/20 01:12:51;;;;;;;7.60;4.30;;;;;;;17.19;nan;102091.72;5023693;28;20028;-78
2023/08/20 01:15:17;;;;;;;7.22;4.13;;;;;;;17.29;nan;102101.06;5026704;28;20061;-79
2023/08/20 01:17:43;;;;;;;7.32;4.07;;;;;;;17.27;nan;102095.00;5022784;28;20414;-78
2023/08/20 01:20:11;;;;;;;5.75;3.65;;;;;;;17.39;nan;102104.28;5030156;28;20389;-79
2023/08/20 01:22:51;;;;;;;9.32;4.30;;;;;;;17.40;nan;102085.78;5022637;28;20036;-78
2023/08/20 01:25:37;;;;;;;8.63;3.97;;;;;;;17.53;nan;102089.75;5025884;28;20064;-79
2023/08/20 01:28:20;;;;;;;11.60;3.97;;;;;;;17.52;nan;102072.19;5023973;28;20030;-79
2023/08/20 01:30:47;;;;;;;10.25;5.35;;;;;;;17.60;nan;102086.91;5020638;28;20052;-79
2023/08/20 01:33:13;;;;;;;10.50;5.05;;;;;;;17.64;nan;102084.13;5020538;28;20103;-79
2023/08/20 01:35:38;;;;;;;11.60;5.22;;;;;;;17.72;nan;102082.09;5023931;28;20038;-79
2023/08/20 01:38:04;;;;;;;12.13;4.63;;;;;;;17.75;nan;102086.38;5022221;28;20088;-78
2023/08/20 01:40:30;;;;;;;14.10;5.00;;;;;;;17.68;nan;102074.31;5021904;28;20028;-78
2023/08/20 01:42:56;;;;;;;10.13;4.45;;;;;;;17.71;nan;102080.34;5023804;28;20500;-79
2023/08/20 01:45:22;;;;;;;7.47;3.75;;;;;;;17.77;nan;102081.97;5022526;28;20042;-79
2023/08/20 01:47:47;;;;;;;8.98;4.47;;;;;;;17.84;nan;102096.66;5023637;28;20013;-78
2023/08/20 01:50:12;;;;;;;7.63;4.30;;;;;;;17.83;nan;102088.81;5015562;28;20038;-79
2023/08/20 01:52:38;;;;;;;7.50;3.83;;;;;;;17.82;nan;102087.97;5016634;28;20076;-79
2023/08/20 01:55:04;;;;;;;10.43;4.13;;;;;;;17.78;nan;102095.09;5025688;28;20053;-79
2023/08/20 01:57:29;;;;;;;8.70;4.25;;;;;;;17.82;nan;102092.34;5016358;28;20481;-79
2023/08/20 01:59:54;;;;;;;9.25;4.45;;;;;;;17.82;nan;102093.25;5023317;28;20064;-79
2023/08/20 02:02:20;;;;;;;9.13;4.10;;;;;;;17.84;nan;102094.03;5021278;28;20033;-79
2023/08/20 02:04:45;;;;;;;10.10;4.10;;;;;;;17.88;nan;102100.91;5023018;28;20499;-79
2023/08/20 02:07:11;;;;;;;6.75;3.70;;;;;;;17.88;nan;102105.34;5022898;28;20037;-79
2023/08/20 02:09:36;;;;;;;8.27;3.45;;;;;;;17.94;nan;102108.63;5020703;28;20041;-79
2023/08/20 02:12:01;;;;;;;9.38;3.78;;;;;;;17.90;nan;102100.88;5020621;28;20140;-79
2023/08/20 02:14:28;;;;;;;5.85;3.92;;;;;;;17.90;nan;102111.44;5017472;28;20029;-79
2023/08/20 02:16:54;;;;;;;10.05;4.22;;;;;;;17.87;nan;102122.94;5023878;28;20084;-79
2023/08/20 02:19:19;;;;;;;7.68;3.50;;;;;;;17.90;nan;102112.28;5014913;28;20029;-79
2023/08/20 02:21:44;;;;;;;9.45;3.88;;;;;;;17.88;nan;102113.25;5024727;28;20038;-79
2023/08/20 02:24:09;;;;;;;8.35;4.00;;;;;;;17.82;nan;102116.97;5025336;28;20404;-79
2023/08/20 02:26:35;;;;;;;9.13;4.53;;;;;;;17.78;nan;102115.31;5015353;28;20033;-78
2023/08/20 02:29:00;;;;;;;7.22;3.53;;;;;;;17.80;nan;102121.44;5027277;28;20072;-79
2023/08/20 02:31:25;;;;;;;7.82;3.53;;;;;;;17.83;nan;102123.97;5011243;28;20053;-79
2023/08/20 02:33:51;;;;;;;9.27;3.90;;;;;;;17.74;nan;102113.69;5021102;28;20037;-79
2023/08/20 02:36:16;;;;;;;7.22;4.20;;;;;;;17.73;nan;102117.25;5023682;28;20428;-79
2023/08/20 02:38:41;;;;;;;7.43;3.92;;;;;;;17.71;nan;102105.88;5023727;28;20029;-79
2023/08/20 02:41:07;;;;;;;9.32;3.95;;;;;;;17.59;nan;102093.09;5023036;28;20080;-79
2023/08/20 02:43:32;;;;;;;7.55;4.00;;;;;;;17.57;nan;102105.47;5019126;28;20117;-79
2023/08/20 02:45:58;;;;;;;9.05;4.05;;;;;;;17.47;nan;102108.41;5022268;28;20025;-79
2023/08/20 02:48:27;;;;;;;8.02;4.03;;;;;;;17.41;nan;102107.75;5021273;28;20061;-79
2023/08/20 02:50:56;;;;;;;9.95;4.30;;;;;;;17.30;nan;102108.09;5023253;28;20075;-79
2023/08/20 02:53:22;;;;;;;8.60;4.25;;;;;;;17.18;nan;102109.31;5020599;28;20033;-79
2023/08/20 02:55:48;;;;;;;9.65;4.40;;;;;;;17.08;nan;102100.84;5020028;28;20025;-79
2023/08/20 02:58:13;;;;;;;10.40;4.43;;;;;;;17.00;nan;102096.69;5023460;28;20037;-78
2023/08/20 03:00:39;;;;;;;8.20;4.32;;;;;;;16.99;nan;102103.75;5018004;28;20470;-79
2023/08/20 03:03:08;;;;;;;8.32;4.10;;;;;;;16.85;nan;102090.13;5024079;28;20107;-79
2023/08/20 03:05:34;;;;;;;8.05;3.97;;;;;;;16.81;nan;102093.78;5014646;28;20022;-79
2023/08/20 03:07:59;;;;;;;9.80;4.50;;;;;;;16.70;nan;102086.13;5019085;28;20025;-79
2023/08/20 03:10:28;;;;;;;6.63;4.97;;;;;;;16.61;nan;102092.56;5016276;28;20043;-79
2023/08/20 03:12:53;;;;;;;10.65;4.57;;;;;;;16.62;nan;102096.91;5022095;28;20417;-79
2023/08/20 03:15:19;;;;;;;11.18;5.65;;;;;;;16.56;nan;102102.34;5025634;28;20026;-79
2023/08/20 03:17:44;;;;;;;8.52;5.70;;;;;;;16.46;nan;102085.09;5019354;28;20061;-79
2023/08/20 03:20:10;;;;;;;8.57;5.68;;;;;;;16.51;nan;102103.38;5011237;28;20095;-79
2023/08/20 03:22:37;;;;;;;11.18;6.75;;;;;;;16.43;nan;102092.19;5022172;28;20377;-78
2023/08/20 03:25:03;;;;;;;10.95;5.93;;;;;;;16.43;nan;102100.97;5022343;28;20025;-79
2023/08/20 03:27:28;;;;;;;9.52;5.70;;;;;;;16.35;nan;102093.28;5023273;28;20018;-79
2023/08/20 03:29:54;;;;;;;10.82;5.90;;;;;;;16.36;nan;102100.28;5013562;28;20030;-78
2023/08/20 03:32:19;;;;;;;11.90;6.68;;;;;;;16.38;nan;102108.09;5025879;28;20036;-78
2023/08/20 03:34:44;;;;;;;10.00;6.75;;;;;;;16.31;nan;102110.03;5019131;28;20042;-78
2023/08/20 03:37:10;;;;;;;11.05;6.10;;;;;;;16.25;nan;102096.19;5025623;28;20181;-78
2023/08/20 03:39:35;;;;;;;10.32;6.43;;;;;;;16.18;nan;102099.91;5015654;28;20018;-78
2023/08/20 03:42:00;;;;;;;10.13;5.90;;;;;;;16.09;nan;102094.00;5019637;28;20037;-78
2023/08/20 03:44:26;;;;;;;9.23;7.18;;;;;;;16.07;nan;102102.81;5015897;28;20037;-78
2023/08/20 03:46:51;;;;;;;11.73;6.80;;;;;;;15.93;nan;102087.41;5023918;28;20025;-78
2023/08/20 03:49:17;;;;;;;11.15;6.90;;;;;;;15.85;nan;102081.47;5014405;28;20493;-79
2023/08/20 03:51:42;;;;;;;8.38;5.95;;;;;;;15.91;nan;102095.31;5021800;28;20029;-78
2023/08/20 03:54:08;;;;;;;10.40;6.32;;;;;;;15.99;nan;102115.28;5022846;28;20067;-79
2023/08/20 03:56:34;;;;;;;8.32;6.03;;;;;;;15.92;nan;102104.06;5020699;28;20068;-78
2023/08/20 03:58:59;;;;;;;9.27;5.25;;;;;;;15.97;nan;102110.09;5017873;28;20420;-78
2023/08/20 04:01:24;;;;;;;8.75;5.32;;;;;;;15.95;nan;102117.16;5012324;28;20037;-79
2023/08/20 04:03:50;;;;;;;9.25;5.13;;;;;;;15.72;nan;102090.56;5022095;28;20033;-78
2023/08/20 04:06:15;;;;;;;10.35;4.70;;;;;;;15.80;nan;102122.81;5022612;28;20026;-79
2023/08/20 04:08:40;;;;;;;7.78;4.70;;;;;;;15.75;nan;102129.94;5022727;28;20040;-78
2023/08/20 04:11:06;;;;;;;7.95;5.10;;;;;;;15.66;nan;102129.28;5022091;28;20021;-78
2023/08/20 04:13:32;;;;;;;8.65;4.43;;;;;;;15.63;nan;102128.41;5022498;28;20059;-78
2023/08/20 04:15:57;;;;;;;10.10;5.45;;;;;;;15.53;nan;102117.28;5020174;28;20049;-78
2023/08/20 04:18:22;;;;;;;7.28;5.40;;;;;;;15.49;nan;102120.00;5021903;28;20036;-79
2023/08/20 04:20:51;;;;;;;9.48;5.60;;;;;;;15.54;nan;102123.41;5019805;28;20084;-79
2023/08/20 04:23:16;;;;;;;10.50;5.78;;;;;;;15.59;nan;102127.63;5010383;28;20401;-79
2023/08/20 04:25:41;;;;;;;7.28;5.13;;;;;;;15.61;nan;102127.63;5021379;28;20029;-78
2023/08/20 04:28:07;;;;;;;10.30;5.90;;;;;;;15.54;nan;102124.28;5021342;28;20081;-78
2023/08/20 04:30:34;;;;;;;5.65;4.88;;;;;;;15.43;nan;102121.91;5021230;28;20036;-78
2023/08/20 04:33:00;;;;;;;9.40;4.95;;;;;;;15.48;nan;102131.44;5020611;28;20042;-79
2023/08/20 04:35:25;;;;;;;8.60;5.10;;;;;;;15.43;nan;102140.31;5022257;28;20928;-78
2023/08/20 04:37:50;;;;;;;6.97;4.78;;;;;;;15.46;nan;102147.22;5021133;28;20030;-78
2023/08/20 04:40:16;;;;;;;10.15;5.00;;;;;;;15.41;nan;102138.59;5014427;28;20026;-79
2023/08/20 04:42:41;;;;;;;7.95;4.55;;;;;;;15.40;nan;102140.38;5021670;28;20048;-78
2023/08/20 04:45:07;;;;;;;11.32;5.53;;;;;;;15.42;nan;102140.31;5019025;28;20030;-78
2023/08/20 04:47:32;;;;;;;8.60;5.40;;;;;;;15.42;nan;102137.69;5022288;28;20072;-78
2023/08/20 04:49:57;;;;;;;9.43;5.10;;;;;;;15.42;nan;102140.31;5022051;28;20034;-79
2023/08/20 04:52:23;;;;;;;10.48;5.53;;;;;;;15.38;nan;102133.41;5024291;28;20489;-79
2023/08/20 04:54:49;;;;;;;9.05;5.30;;;;;;;15.36;nan;102127.31;5020592;28;20030;-79
2023/08/20 04:57:14;;;;;;;10.93;5.57;;;;;;;15.35;nan;102129.09;5028399;28;20025;-78
2023/08/20 04:59:39;;;;;;;7.18;5.00;;;;;;;15.52;nan;102147.09;5023430;28;20539;-79
2023/08/20 05:02:05;;;;;;;8.38;5.05;;;;;;;15.43;nan;102142.03;5022267;28;20105;-79
2023/08/20 05:04:30;;;;;;;6.93;4.63;;;;;;;15.50;nan;102153.28;5030873;28;20029;-79
2023/08/20 05:06:55;;;;;;;6.10;4.85;;;;;;;15.49;nan;102152.41;5022459;28;20064;-79
2023/08/20 05:09:21;;;;;;;6.60;4.45;;;;;;;15.45;nan;102145.50;5014512;28;20038;-79
2023/08/20 05:11:46;;;;;;;9.50;5.25;;;;;;;15.46;nan;102149.84;5027611;28;20084;-79
2023/08/20 05:14:12;;;;;;;8.15;4.63;;;;;;;15.45;nan;102135.84;5021623;28;20029;-79
2023/08/20 05:16:37;;;;;;;6.45;4.53;;;;;;;15.55;nan;102160.16;5027820;28;20033;-79
2023/08/20 05:19:03;;;;;;;7.28;4.72;;;;;;;15.57;nan;102147.84;5019238;28;20116;-79
2023/08/20 05:21:28;;;;;;;6.53;4.50;;;;;;;15.61;nan;102154.75;5020187;28;20030;-78
2023/08/20 05:23:53;;;;;;;8.13;5.65;;;;;;;15.56;nan;102137.38;5019682;28;20052;-79
2023/08/20 05:26:19;;;;;;;9.18;5.15;;;;;;;15.75;nan;102158.84;5023578;28;20496;-79
2023/08/20 05:28:44;;;;;;;7.25;5.20;;;;;;;15.81;nan;102163.97;5017129;28;20046;-79
2023/08/20 05:31:10;;;;;;;6.80;4.97;;;;;;;15.85;nan;102161.22;5020029;28;20038;-78
2023/08/20 05:33:36;;;;;;;7.35;4.65;;;;;;;15.88;nan;102161.16;5020369;28;20071;-79
2023/08/20 05:36:01;;;;;;;6.40;5.15;;;;;;;15.90;nan;102159.34;5020357;28;20072;-78
2023/08/20 05:38:26;;;;;;;9.43;5.57;;;;;;;15.96;nan;102155.72;5024146;28;20026;-79
2023/08/20 05:40:52;;;;;;;7.57;5.53;;;;;;;16.03;nan;102161.69;5024835;28;20079;-78
2023/08/20 05:43:17;;;;;;;7.45;5.10;;;;;;;16.08;nan;102158.00;5022811;28;20029;-79
2023/08/20 05:45:42;;;;;;;8.90;5.82;;;;;;;16.20;nan;102164.72;5025230;28;20044;-79
2023/08/20 05:48:07;;;;;;;9.20;6.10;;;;;;;16.23;nan;102171.69;5022681;28;20079;-78
2023/08/20 05:50:33;;;;;;;10.82;6.38;;;;;;;16.24;nan;102158.47;5020561;28;20116;-78
2023/08/20 05:52:58;;;;;;;13.60;6.72;;;;;;;16.33;nan;102170.53;5026487;28;20161;-79
2023/08/20 05:55:24;;;;;;;10.20;5.85;;;;;;;16.38;nan;102176.53;5021569;28;20160;-78
2023/08/20 05:57:50;;;;;;;13.90;6.30;;;;;;;16.43;nan;102160.63;5026687;28;20030;-78
2023/08/20 06:00:17;;;;;;;10.00;6.18;;;;;;;16.51;nan;102169.19;5010852;28;20030;-78
2023/08/20 06:02:43;;;;;;;12.05;6.10;;;;;;;16.58;nan;102157.59;5021240;28;20030;-79
2023/08/20 06:05:09;;;;;;;13.13;6.38;;;;;;;16.60;nan;102159.25;5018729;28;20485;-78
2023/08/20 06:07:34;;;;;;;10.43;6.32;;;;;;;16.75;nan;102171.19;5017742;28;20395;-79
2023/08/20 06:09:59;;;;;;;9.23;6.13;;;;;;;16.81;nan;102160.47;5015974;28;20503;-79
2023/08/20 06:12:25;;;;;;;12.38;5.93;;;;;;;16.89;nan;102154.13;5020451;28;20033;-78
2023/08/20 06:14:50;;;;;;;9.88;5.85;;;;;;;16.92;nan;102152.25;5023379;28;20633;-78
2023/08/20 06:17:15;;;;;;;12.60;5.85;;;;;;;17.00;nan;102158.19;5024791;28;20506;-79
2023/08/20 06:19:41;;;;;;;8.75;5.63;;;;;;;17.03;nan;102152.78;5014944;28;20489;-79
2023/08/20 06:22:07;;;;;;;13.20;6.82;;;;;;;17.19;nan;102170.78;5022729;28;20021;-79
2023/08/20 06:24:32;;;;;;;9.32;5.20;;;;;;;17.25;nan;102163.56;5021019;28;20026;-79
2023/08/20 06:26:57;;;;;;;15.48;5.68;;;;;;;17.32;nan;102156.31;5026457;28;20025;-79
2023/08/20 06:29:23;;;;;;;7.00;5.00;;;;;;;17.45;nan;102162.94;5020200;28;20029;-79
2023/08/20 06:31:49;;;;;;;13.57;5.65;;;;;;;17.44;nan;102150.69;5026320;28;20101;-79
2023/08/20 06:34:14;;;;;;;7.25;4.90;;;;;;;17.51;nan;102153.97;5020300;28;20029;-78
2023/08/20 06:36:40;;;;;;;12.65;4.90;;;;;;;17.70;nan;102167.44;5017343;28;20033;-78
2023/08/20 06:39:05;;;;;;;11.35;4.53;;;;;;;17.78;nan;102163.66;5022257;28;20104;-79
2023/08/20 06:41:30;;;;;;;12.70;5.47;;;;;;;17.83;nan;102173.22;5018135;28;20508;-79
2023/08/20 06:43:56;;;;;;;14.48;5.05;;;;;;;17.85;nan;102166.09;5019554;28;20030;-79
2023/08/20 06:46:21;;;;;;;9.60;5.20;;;;;;;17.91;nan;102165.91;5021099;28;20044;-79
2023/08/20 06:48:46;;;;;;;11.55;5.60;;;;;;;17.98;nan;102165.69;5023081;28;20036;-79
2023/08/20 06:51:13;;;;;;;10.80;5.43;;;;;;;17.97;nan;102160.44;5022209;28;20116;-79
2023/08/20 06:53:40;;;;;;;18.98;5.82;;;;;;;18.00;nan;102153.28;5023831;28;20022;-79
2023/08/20 06:56:06;;;;;;;13.43;5.10;;;;;;;18.15;nan;102174.78;5024110;28;20071;-79
2023/08/20 06:58:31;;;;;;;11.80;5.57;;;;;;;18.25;nan;102169.13;5019334;28;20393;-79
2023/08/20 07:01:06;;;;;;;11.98;5.43;;;;;;;18.31;nan;102170.72;5018996;28;20045;-79
2023/08/20 07:03:32;;;;;;;9.85;4.90;;;;;;;18.39;nan;102173.94;5018764;28;20048;-79
2023/08/20 07:05:58;;;;;;;9.68;5.35;;;;;;;18.38;nan;102161.66;5021614;28;20013;-79
2023/08/20 07:08:23;;;;;;;14.85;5.13;;;;;;;18.48;nan;102170.97;5018875;28;20041;-79
2023/08/20 07:10:48;;;;;;;11.70;5.40;;;;;;;18.59;nan;102180.28;5018354;28;20034;-79
2023/08/20 07:13:13;;;;;;;12.35;5.22;;;;;;;18.67;nan;102184.41;5022760;28;20061;-79
2023/08/20 07:15:39;;;;;;;9.63;4.53;;;;;;;18.72;nan;102189.53;5020380;28;20040;-79
2023/08/20 07:18:04;;;;;;;11.65;4.43;;;;;;;18.70;nan;102181.66;5022586;28;20025;-79
2023/08/20 07:20:29;;;;;;;7.53;4.60;;;;;;;18.78;nan;102186.66;5017419;28;20072;-79
2023/08/20 07:22:55;;;;;;;10.52;5.95;;;;;;;18.78;nan;102177.88;5019106;28;20120;-79
2023/08/20 07:25:21;;;;;;;11.40;4.85;;;;;;;18.84;nan;102180.31;5022884;28;20040;-79
2023/08/20 07:27:46;;;;;;;10.05;4.45;;;;;;;18.90;nan;102183.59;5017511;28;20034;-79
2023/08/20 07:30:12;;;;;;;11.20;4.63;;;;;;;18.95;nan;102186.91;5015583;28;20136;-79
2023/08/20 07:32:37;;;;;;;8.23;3.95;;;;;;;19.04;nan;102179.56;5017830;28;20533;-79
2023/08/20 07:35:02;;;;;;;10.02;4.65;;;;;;;19.10;nan;102182.84;5015115;28;20145;-79
2023/08/20 07:37:28;;;;;;;10.48;4.68;;;;;;;19.12;nan;102178.31;5020670;28;20056;-79
2023/08/20 07:39:53;;;;;;;8.93;4.18;;;;;;;19.26;nan;102183.13;5011418;28;21159;-79
2023/08/20 07:42:18;;;;;;;10.48;4.68;;;;;;;19.28;nan;102175.97;5016925;28;20084;-79
2023/08/20 07:44:44;;;;;;;8.63;3.88;;;;;;;19.38;nan;102179.13;5017691;28;20104;-79
2023/08/20 07:47:09;;;;;;;10.07;3.90;;;;;;;19.41;nan;102171.06;5026592;28;20075;-79
2023/08/20 07:49:34;;;;;;;7.95;3.42;;;;;;;19.56;nan;102190.75;5018790;28;20393;-79
2023/08/20 07:52:00;;;;;;;9.73;4.20;;;;;;;19.62;nan;102190.53;5022164;28;20022;-79
2023/08/20 07:54:26;;;;;;;8.88;4.00;;;;;;;19.72;nan;102205.13;5013436;28;20053;-78
2023/08/20 07:56:51;;;;;;;7.38;3.95;;;;;;;19.84;nan;102206.41;5023373;28;20032;-74
2023/08/20 07:59:17;;;;;;;8.38;3.67;;;;;;;19.88;nan;102193.00;5020128;28;20030;-75
2023/08/20 08:01:42;;;;;;;5.93;2.83;;;;;;;19.94;nan;102209.53;5016691;28;20471;-75
2023/08/20 08:04:07;;;;;;;7.13;2.65;;;;;;;20.00;nan;102209.28;5018259;28;20065;-73
2023/08/20 08:06:33;;;;;;;7.57;3.17;;;;;;;20.12;nan;102200.84;5017727;28;20029;-72
2023/08/20 08:09:17;;;;;;;7.15;3.25;;;;;;;20.21;nan;102203.09;5012252;28;20532;-74
2023/08/20 08:11:43;;;;;;;8.98;3.00;;;;;;;20.28;nan;102207.22;5023805;28;20041;-74
2023/08/20 08:14:09;;;;;;;8.77;3.65;;;;;;;20.34;nan;102212.25;5011206;28;20026;-74
2023/08/20 08:16:34;;;;;;;5.78;2.50;;;;;;;20.41;nan;102210.19;5016557;28;20092;-74
2023/08/20 08:18:59;;;;;;;5.88;2.70;;;;;;;20.49;nan;102210.72;5018614;28;20045;-74
2023/08/20 08:21:24;;;;;;;6.07;2.80;;;;;;;20.59;nan;102213.84;5022828;28;20033;-74
2023/08/20 08:23:50;;;;;;;5.32;2.47;;;;;;;20.65;nan;102218.88;5024806;28;20382;-74
2023/08/20 08:26:15;;;;;;;7.95;2.80;;;;;;;20.73;nan;102214.13;5025115;28;20068;-74
2023/08/20 08:28:40;;;;;;;4.80;2.53;;;;;;;20.76;nan;102202.50;5025848;28;20053;-74
2023/08/20 08:31:06;;;;;;;4.82;2.55;;;;;;;20.92;nan;102207.97;5022072;28;20029;-74
2023/08/20 08:33:31;;;;;;;7.15;2.92;;;;;;;21.00;nan;102214.66;5020599;28;20113;-74
2023/08/20 08:35:56;;;;;;;10.23;3.33;;;;;;;21.05;nan;102225.06;5022928;28;20124;-74
2023/08/20 08:38:22;;;;;;;6.75;2.40;;;;;;;21.06;nan;102208.22;5023970;28;20388;-74
2023/08/20 08:40:48;;;;;;;5.40;2.30;;;;;;;21.19;nan;102213.81;5019544;28;20021;-74
2023/08/20 08:43:16;;;;;;;5.32;2.33;;;;;;;21.22;nan;102211.91;5020963;28;20053;-74
2023/08/20 08:45:46;;;;;;;5.32;2.38;;;;;;;21.25;nan;102213.53;5010062;28;20038;-73
2023/08/20 08:48:12;;;;;;;3.63;1.92;;;;;;;21.36;nan;102213.06;5023029;28;20076;-73
2023/08/20 08:50:37;;;;;;;3.80;1.77;;;;;;;21.37;nan;102212.13;5017801;28;20037;-74
2023/08/20 08:53:03;;;;;;;3.45;1.73;;;;;;;21.51;nan;102221.13;5025837;28;20037;-77
2023/08/20 08:55:29;;;;;;;6.75;2.00;;;;;;;21.56;nan;102215.63;5023026;28;20390;-75
2023/08/20 08:57:54;;;;;;;5.70;2.20;;;;;;;21.65;nan;102215.19;5018720;28;20059;-74
2023/08/20 09:00:19;;;;;;;4.50;2.20;;;;;;;21.77;nan;102218.19;5012031;28;20424;-74
2023/08/20 09:02:45;;;;;;;3.70;1.70;;;;;;;21.86;nan;102223.03;5021892;28;20117;-74
2023/08/20 09:05:13;;;;;;;2.58;1.33;;;;;;;21.92;nan;102228.91;5020180;28;20509;-74
2023/08/20 09:07:43;;;;;;;3.95;1.63;;;;;;;22.09;nan;102225.41;5013030;28;20038;-75
2023/08/20 09:10:09;;;;;;;2.95;1.40;;;;;;;22.16;nan;102212.72;5024848;28;20416;-75
2023/08/20 09:12:35;;;;;;;2.65;1.52;;;;;;;22.28;nan;102224.53;5016430;28;20493;-75
2023/08/20 09:15:01;;;;;;;3.85;1.45;;;;;;;22.35;nan;102212.63;5018396;28;20018;-74
2023/08/20 09:17:27;;;;;;;4.15;1.55;;;;;;;22.51;nan;102228.66;5019182;28;20371;-75
2023/08/20 09:19:55;;;;;;;4.95;1.63;;;;;;;22.64;nan;102219.09;5021184;28;20108;-74
2023/08/20 09:22:20;;;;;;;4.63;2.30;;;;;;;22.67;nan;102213.63;5020897;28;20038;-75
2023/08/20 09:24:51;;;;;;;6.88;2.45;;;;;;;22.82;nan;102223.44;5020463;28;20026;-74
2023/08/20 09:27:16;;;;;;;4.68;1.88;;;;;;;22.87;nan;102209.91;5026721;28;20026;-75
2023/08/20 09:29:46;;;;;;;5.28;1.95;;;;;;;23.00;nan;102218.97;5022130;28;20527;-75
2023/08/20 09:32:18;;;;;;;4.70;1.80;;;;;;;23.08;nan;102219.41;5022592;28;21333;-75
2023/08/20 09:34:44;;;;;;;3.60;1.85;;;;;;;23.26;nan;102227.34;5017361;28;20463;-76
2023/08/20 09:37:10;;;;;;;3.20;1.55;;;;;;;23.35;nan;102227.69;5022703;28;20108;-76
2023/08/20 09:39:36;;;;;;;4.20;1.80;;;;;;;23.30;nan;102205.78;5016538;28;20474;-76
2023/08/20 09:42:02;;;;;;;2.88;1.70;;;;;;;23.50;nan;102223.28;5028634;28;20056;-76
2023/08/20 09:44:35;;;;;;;3.20;1.50;;;;;;;23.54;nan;102230.19;5012814;28;20031;-77
2023/08/20 09:47:11;;;;;;;3.15;1.65;;;;;;;23.64;nan;102224.31;5019705;28;20025;-76
2023/08/20 09:49:38;;;;;;;4.18;1.65;;;;;;;23.76;nan;102228.97;5025863;28;20041;-76
2023/08/20 09:52:05;;;;;;;6.20;1.50;;;;;;;23.90;nan;102231.69;5028137;28;20470;-76
2023/08/20 09:54:45;;;;;;;2.88;1.13;;;;;;;23.94;nan;102217.28;5014869;28;20032;-76
2023/08/20 09:57:18;;;;;;;3.38;1.27;;;;;;;24.04;nan;102209.63;5019819;28;20033;-76
2023/08/20 09:59:45;;;;;;;;;;;;;;;24.15;nan;102225.81;5021458;28;20029;-76
2023/08/20 10:02:13;;;;;;;2.17;1.20;;;;;;;24.12;nan;102230.47;5009803;28;19917;-76
2023/08/20 10:04:39;;;;;;;2.60;1.02;;;;;;;24.22;nan;102231.63;5020072;28;20057;-76
2023/08/20 10:07:05;;;;;;;1.65;1.13;;;;;;;24.23;nan;102223.56;5017184;28;20049;-76
2023/08/20 10:09:30;;;;;;;3.95;1.30;;;;;;;24.26;nan;102231.38;5019871;28;20087;-77
2023/08/20 10:11:56;;;;;;;2.60;1.10;;;;;;;24.24;nan;102233.25;5023049;28;20033;-77
2023/08/20 10:14:22;;;;;;;3.80;1.67;;;;;;;24.24;nan;102227.09;5017995;28;20026;-75
2023/08/20 10:16:47;;;;;;;3.22;1.38;;;;;;;24.25;nan;102218.13;5027581;28;20113;-76
2023/08/20 10:19:15;;;;;;;3.75;1.00;;;;;;;24.30;nan;102224.91;5014378;28;20099;-75
2023/08/20 10:21:45;;;;;;;2.65;1.08;;;;;;;24.44;nan;102228.59;5023130;28;20060;-75
2023/08/20 10:24:17;;;;;;;2.78;1.13;;;;;;;24.50;nan;102220.22;5018005;28;20026;-75
2023/08/20 10:26:43;;;;;;;2.28;1.13;;;;;;;24.58;nan;102227.75;5013310;28;20060;-76
2023/08/20 10:29:36;;;;;;;4.80;0.98;;;;;;;24.69;nan;102219.97;5021517;28;20048;-76
2023/08/20 10:32:04;;;;;;;3.38;1.00;;;;;;;24.69;nan;102219.97;5027660;28;20053;-76
2023/08/20 10:34:36;;;;;;;3.63;1.10;;;;;;;24.83;nan;102222.63;5020470;28;20069;-76
2023/08/20 10:37:03;;;;;;;2.70;1.20;;;;;;;24.77;nan;102201.66;5022396;28;20026;-76
2023/08/20 10:39:29;;;;;;;2.63;1.20;;;;;;;25.05;nan;102229.28;5018405;28;20032;-75
2023/08/20 10:42:12;;;;;;;3.28;1.17;;;;;;;25.18;nan;102231.13;5027078;28;20025;-76
2023/08/20 10:44:58;;;;;;;3.05;1.10;;;;;;;25.23;nan;102222.81;5002187;28;20048;-77
2023/08/20 10:47:25;;;;;;;2.03;1.08;;;;;;;25.23;nan;102230.84;5017305;28;20045;-76
2023/08/20 10:49:52;;;;;;;2.97;1.15;;;;;;;25.27;nan;102215.47;5019053;28;20412;-76
2023/08/20 10:52:19;;;;;;;2.22;1.05;;;;;;;25.30;nan;102200.13;5027175;28;20021;-80
2023/08/20 10:54:44;;;;;;;2.42;1.00;;;;;;;25.44;nan;102215.25;5013686;28;20048;-80
2023/08/20 10:57:10;;;;;;;1.95;1.00;;;;;;;25.51;nan;102213.06;5002832;28;20429;-78
2023/08/20 10:59:40;;;;;;;3.05;1.10;;;;;;;25.55;nan;102219.91;5014281;28;20588;-79
2023/08/20 11:02:14;;;;;;;2.13;1.00;;;;;;;25.53;nan;102217.31;5013633;28;20013;-79
2023/08/20 11:04:40;;;;;;;3.92;1.35;;;;;;;25.75;nan;102221.28;5020531;28;20037;-79
2023/08/20 11:07:06;;;;;;;3.13;1.17;;;;;;;25.82;nan;102215.44;5020290;28;20022;-79
2023/08/20 11:09:31;;;;;;;3.80;1.10;;;;;;;25.96;nan;102222.53;5020368;28;20400;-79
2023/08/20 11:11:57;;;;;;;2.90;1.13;;;;;;;26.01;nan;102209.72;5026409;28;20029;-79
2023/08/20 11:14:23;;;;;;;3.58;1.08;;;;;;;26.11;nan;102210.81;5019932;28;20037;-79
2023/08/20 11:16:49;;;;;;;3.72;1.35;;;;;;;26.23;nan;102211.81;5027098;28;20118;-79
2023/08/20 11:19:20;;;;;;;1.77;1.10;;;;;;;26.29;nan;102211.41;5018674;28;20105;-79
2023/08/20 11:21:45;;;;;;;2.85;1.00;;;;;;;26.31;nan;102212.13;5023874;28;20053;-78
2023/08/20 11:24:11;;;;;;;3.97;1.10;;;;;;;26.41;nan;102192.78;5023169;28;20429;-79
2023/08/20 11:26:42;;;;;;;2.47;1.00;;;;;;;26.53;nan;102214.22;5025417;28;20063;-79
2023/08/20 11:29:08;;;;;;;2.45;1.02;;;;;;;26.67;nan;102204.38;5021022;28;20037;-79
2023/08/20 11:31:36;;;;;;;3.35;1.20;;;;;;;26.66;nan;102197.31;5024514;28;20102;-79
2023/08/20 11:34:03;;;;;;;3.85;1.40;;;;;;;26.70;nan;102202.34;5021961;28;20111;-79
2023/08/20 11:36:28;;;;;;;4.22;1.20;;;;;;;26.81;nan;102205.13;5022615;28;20041;-79